createdAt,value
2022-09-07T00:02:47.889Z,99349.05
2022-09-07T00:07:51.037Z,99348.34
2022-09-07T00:12:54.089Z,99347.42
2022-09-07T00:17:57.253Z,99347.13
2022-09-07T00:23:00.319Z,99345.54
2022-09-07T00:28:03.592Z,99340.13
2022-09-07T00:33:06.639Z,99338.45
2022-09-07T00:38:10.056Z,99343.64
2022-09-07T00:43:31.699Z,99345.06
2022-09-07T00:48:42.492Z,99338.59
2022-09-07T00:53:55.643Z,99342.19
2022-09-07T00:58:59.337Z,99338.68
2022-09-07T01:04:03.602Z,99337.06
2022-09-07T01:09:12.166Z,99332.20
2022-09-07T01:14:15.999Z,99327.14
2022-09-07T01:19:53.093Z,99325.13
2022-09-07T01:25:22.275Z,99326.17
2022-09-07T01:30:26.841Z,99326.95
2022-09-07T01:35:45.112Z,99324.48
2022-09-07T01:40:57.022Z,99319.12
2022-09-07T01:46:03.644Z,99305.38
2022-09-07T01:51:07.024Z,99306.98
2022-09-07T01:56:27.538Z,99303.61
2022-09-07T02:01:33.563Z,99297.76
2022-09-07T02:06:51.055Z,99291.62
2022-09-07T02:11:54.909Z,99297.11
2022-09-07T02:17:11.144Z,99294.80
2022-09-07T02:22:19.056Z,99294.66
2022-09-07T02:27:34.118Z,99296.73
2022-09-07T02:32:37.369Z,99296.15
2022-09-07T02:37:42.748Z,99293.84
2022-09-07T02:42:47.836Z,99287.40
2022-09-07T02:48:34.627Z,99288.46
2022-09-07T02:53:57.044Z,99285.41
2022-09-07T02:59:11.619Z,99281.55
2022-09-07T03:04:42.132Z,99280.26
2022-09-07T03:09:50.399Z,99280.58
2022-09-07T03:14:53.230Z,99293.55
2022-09-07T03:19:56.076Z,99297.17
2022-09-07T03:24:59.178Z,99294.02
2022-09-07T03:30:02.220Z,99291.09
2022-09-07T03:35:08.017Z,99295.41
2022-09-07T03:40:13.731Z,99298.38
2022-09-07T03:45:16.894Z,99293.76
2022-09-07T03:50:19.893Z,99291.42
2022-09-07T03:55:22.748Z,99293.92
2022-09-07T04:00:26.205Z,99291.85
2022-09-07T04:05:29.077Z,99291.27
2022-09-07T04:10:32.435Z,99292.05
2022-09-07T04:15:35.437Z,99292.30
2022-09-07T04:20:38.312Z,99294.39
2022-09-07T04:25:48.632Z,99298.38
2022-09-07T04:30:51.500Z,99298.02
2022-09-07T04:35:54.415Z,99305.38
2022-09-07T04:41:00.713Z,99311.23
2022-09-07T04:46:06.126Z,99323.99
2022-09-07T04:51:10.921Z,99329.66
2022-09-07T04:56:16.891Z,99318.09
2022-09-07T05:01:23.387Z,99313.09
2022-09-07T05:06:26.339Z,99308.91
2022-09-07T05:11:30.186Z,99301.98
2022-09-07T05:16:33.268Z,99294.02
2022-09-07T05:21:36.214Z,99300.60
2022-09-07T05:26:39.839Z,99304.87
2022-09-07T05:31:42.773Z,99304.55
2022-09-07T05:36:45.718Z,99307.84
2022-09-07T05:41:48.617Z,99304.52
2022-09-07T05:46:52.804Z,99305.44
2022-09-07T05:51:55.823Z,99306.41
2022-09-07T05:56:58.758Z,99303.42
2022-09-07T06:02:01.985Z,99305.05
2022-09-07T06:07:21.182Z,99309.27
2022-09-07T06:12:25.423Z,99307.33
2022-09-07T06:17:31.305Z,99300.30
2022-09-07T06:22:38.061Z,99305.63
2022-09-07T06:27:40.958Z,99303.88
2022-09-07T06:32:44.432Z,99305.38
2022-09-07T06:37:47.787Z,99304.20
2022-09-07T06:42:50.924Z,99295.73
2022-09-07T06:47:55.001Z,99292.22
2022-09-07T06:58:21.137Z,99294.23
2022-09-07T07:03:24.353Z,99293.45
2022-09-07T07:08:27.277Z,99300.04
2022-09-07T07:13:30.262Z,99300.73
2022-09-07T07:18:34.321Z,99294.10
2022-09-07T07:23:37.894Z,99291.50
2022-09-07T07:29:04.595Z,99289.17
2022-09-07T07:34:08.620Z,99283.14
2022-09-07T07:44:34.661Z,99282.83
2022-09-07T07:49:37.557Z,99277.89
2022-09-07T07:54:40.523Z,99276.06
2022-09-07T07:59:43.429Z,99276.37
2022-09-07T08:04:46.332Z,99281.13
2022-09-07T08:09:49.421Z,99277.52
2022-09-07T08:14:54.185Z,99272.63
2022-09-07T08:19:57.390Z,99268.52
2022-09-07T08:25:00.633Z,99268.95
2022-09-07T08:30:03.923Z,99264.24
2022-09-07T08:35:08.181Z,99265.43
2022-09-07T08:40:18.605Z,99262.84
2022-09-07T08:45:29.026Z,99262.49
2022-09-07T08:50:46.641Z,99255.14
2022-09-07T08:55:55.076Z,99241.24
2022-09-07T09:06:47.391Z,99230.65
2022-09-07T09:12:02.584Z,99228.27
2022-09-07T09:17:16.251Z,99225.65
2022-09-07T09:22:21.880Z,99221.73
2022-09-07T09:27:24.775Z,99215.15
2022-09-07T09:32:39.959Z,99218.36
2022-09-07T09:37:44.692Z,99215.79
2022-09-07T09:42:48.073Z,99215.73
2022-09-07T09:47:54.742Z,99217.33
2022-09-07T09:52:58.737Z,99214.41
2022-09-07T10:09:02.511Z,99201.22
2022-09-07T10:14:05.738Z,99194.14
2022-09-07T10:19:32.210Z,99185.02
2022-09-07T10:24:39.751Z,99187.73
2022-09-07T10:29:42.693Z,99183.67
2022-09-07T10:35:30.059Z,99180.67
2022-09-07T10:40:56.288Z,99173.49
2022-09-07T10:46:56.412Z,99165.11
2022-09-07T10:51:51.601Z,99167.19
2022-09-07T10:57:13.755Z,99164.77
2022-09-07T11:03:24.783Z,99165.44
2022-09-07T11:09:15.106Z,99160.77
2022-09-07T11:14:13.527Z,99157.77
2022-09-07T11:19:38.174Z,99154.38
2022-09-07T11:25:33.053Z,99149.42
2022-09-07T11:30:44.183Z,99145.62
2022-09-07T11:35:53.734Z,99145.58
2022-09-07T11:41:02.889Z,99138.17
2022-09-07T11:46:12.049Z,99135.44
2022-09-07T11:51:35.364Z,99132.64
2022-09-07T11:56:45.574Z,99128.27
2022-09-07T12:02:17.516Z,99123.08
2022-09-07T12:07:43.093Z,99124.70
2022-09-07T12:13:04.284Z,99114.74
2022-09-07T12:18:25.142Z,99109.59
2022-09-07T12:23:31.137Z,99100.27
2022-09-07T12:28:33.982Z,99093.38
2022-09-07T12:33:38.976Z,99090.44
2022-09-07T12:39:02.832Z,99081.17
2022-09-07T12:44:07.356Z,99080.13
2022-09-07T12:49:29.056Z,99074.95
2022-09-07T12:54:38.818Z,99070.88
2022-09-07T13:00:05.735Z,99078.58
2022-09-07T13:05:35.534Z,99078.35
2022-09-07T13:10:41.764Z,99074.98
2022-09-07T13:15:50.273Z,99071.16
2022-09-07T13:21:08.640Z,99058.21
2022-09-07T13:26:52.910Z,99051.94
2022-09-07T13:32:15.824Z,99053.33
2022-09-07T13:37:23.227Z,99049.23
2022-09-07T13:42:30.455Z,99034.34
2022-09-07T13:47:57.488Z,99031.34
2022-09-07T13:53:21.575Z,99030.88
2022-09-07T13:58:34.173Z,99022.92
2022-09-07T14:03:51.826Z,99017.69
2022-09-07T14:08:57.631Z,99019.70
2022-09-07T14:14:07.707Z,99021.77
2022-09-07T14:19:34.024Z,99022.79
2022-09-07T14:24:47.155Z,99021.33
2022-09-07T14:29:50.610Z,99019.61
2022-09-07T14:34:53.573Z,99015.08
2022-09-07T14:39:57.568Z,99015.42
2022-09-07T14:45:18.356Z,99015.42
2022-09-07T14:50:25.345Z,99011.34
2022-09-07T14:55:33.337Z,99009.45
2022-09-07T15:00:36.424Z,99011.98
2022-09-07T15:05:49.110Z,99015.02
2022-09-07T15:16:33.043Z,99013.18
2022-09-07T15:21:39.765Z,99015.97
2022-09-07T15:27:03.360Z,99011.14
2022-09-07T15:32:09.461Z,99008.44
2022-09-07T15:47:59.710Z,99000.29
2022-09-07T15:53:03.144Z,98994.38
2022-09-07T15:58:11.894Z,98988.67
2022-09-07T16:03:15.108Z,98984.40
2022-09-07T16:08:26.148Z,98980.12
2022-09-07T16:13:31.395Z,98979.09
2022-09-07T16:18:34.972Z,98973.88
2022-09-07T16:23:40.796Z,98968.23
2022-09-07T16:28:46.061Z,98961.64
2022-09-07T16:33:49.098Z,98966.27
2022-09-07T16:38:59.982Z,98968.35
2022-09-07T16:44:03.512Z,98965.80
2022-09-07T16:49:07.653Z,98964.54
2022-09-07T16:54:13.473Z,98964.04
2022-09-07T16:59:20.457Z,98966.50
2022-09-07T17:04:23.915Z,98969.24
2022-09-07T17:09:29.364Z,98970.84
2022-09-07T17:14:32.820Z,98972.94
2022-09-07T17:19:35.929Z,98975.06
2022-09-07T17:24:39.222Z,98986.17
2022-09-07T17:29:42.875Z,98991.59
2022-09-07T17:34:45.986Z,98993.84
2022-09-07T17:39:49.458Z,98997.21
2022-09-07T17:44:53.022Z,98999.62
2022-09-07T17:49:56.193Z,99003.90
2022-09-07T17:55:01.409Z,99004.04
2022-09-07T18:00:11.205Z,99015.02
2022-09-07T18:05:16.703Z,99006.41
2022-09-07T18:10:20.479Z,99005.34
2022-09-07T18:15:23.362Z,99006.65
2022-09-07T18:20:26.722Z,99009.48
2022-09-07T18:25:30.060Z,99011.68
2022-09-07T18:30:36.486Z,99012.86
2022-09-07T18:35:54.203Z,99013.55
2022-09-07T18:41:14.130Z,99010.15
2022-09-07T18:46:23.251Z,99005.91
2022-09-07T18:51:26.733Z,99011.48
2022-09-07T18:56:29.979Z,99009.95
2022-09-07T19:01:33.029Z,99005.80
2022-09-07T19:06:35.922Z,99004.71
2022-09-07T19:11:41.129Z,99004.52
2022-09-07T19:16:45.155Z,99006.38
2022-09-07T19:21:48.823Z,99002.64
2022-09-07T19:26:51.675Z,98999.64
2022-09-07T19:32:07.991Z,98995.42
2022-09-07T19:37:12.946Z,98996.36
2022-09-07T19:42:15.830Z,98993.68
2022-09-07T19:47:19.139Z,98992.01
2022-09-07T19:52:22.116Z,98994.21
2022-09-07T19:57:24.954Z,99003.05
2022-09-07T20:02:27.810Z,99005.14
2022-09-07T20:07:30.630Z,99004.98
2022-09-07T20:12:33.517Z,99013.48
2022-09-07T20:17:37.990Z,99008.14
2022-09-07T20:22:41.329Z,99001.35
2022-09-07T20:27:44.165Z,98998.17
2022-09-07T20:32:47.232Z,98997.58
2022-09-07T20:37:50.314Z,99001.20
2022-09-07T20:42:53.639Z,98990.59
2022-09-07T20:47:56.508Z,98989.85
2022-09-07T20:52:59.415Z,98984.64
2022-09-07T20:58:03.101Z,98980.00
2022-09-07T21:03:06.003Z,98983.70
2022-09-07T21:08:09.043Z,98986.83
2022-09-07T21:13:12.245Z,98985.19
2022-09-07T21:18:17.865Z,98982.02
2022-09-07T21:23:21.106Z,98981.38
2022-09-07T21:28:25.895Z,98982.51
2022-09-07T21:33:30.800Z,98980.86
2022-09-07T21:38:35.414Z,98981.96
2022-09-07T21:43:39.849Z,98981.30
2022-09-07T21:48:43.438Z,98979.34
2022-09-07T21:53:51.631Z,98975.54
2022-09-07T21:58:55.585Z,98978.17
2022-09-07T22:04:03.471Z,98976.14
2022-09-07T22:09:06.515Z,98970.95
2022-09-07T22:14:11.915Z,98967.52
2022-09-07T22:19:14.782Z,98965.23
2022-09-07T22:24:17.894Z,98968.80
2022-09-07T22:29:20.770Z,98966.73
2022-09-07T22:34:23.745Z,98966.18
2022-09-07T22:39:26.625Z,98964.41
2022-09-07T22:44:30.137Z,98956.57
2022-09-07T22:49:33.298Z,98957.86
2022-09-07T22:54:36.096Z,98958.13
2022-09-07T22:59:38.940Z,98958.02
2022-09-07T23:04:41.925Z,98949.16
2022-09-07T23:09:44.904Z,98947.95
2022-09-07T23:14:47.783Z,98945.19
2022-09-07T23:19:50.658Z,98946.07
2022-09-07T23:24:53.565Z,98938.01
2022-09-07T23:29:56.353Z,98936.40
2022-09-07T23:34:59.518Z,98928.41
2022-09-07T23:40:02.685Z,98927.07
2022-09-07T23:45:08.326Z,98922.49
2022-09-07T23:50:11.292Z,98925.48
2022-09-07T23:55:14.210Z,98915.77
